Time;durP1;ratioP1;P1;durP2;ratioP2;P2;SDS_P1;SDS_P2;PMS_P1;PMS_P2;Temp;Humidity;BMP_temperature;BMP_pressure;BME280_temperature;BME280_humidity;BME280_pressure;Samples;Min_cycle;Max_cycle;Signal;HPM_P1;HPM_P2
2023/08/23 00:01:23;;;;;;;4.38;2.33;;;;;;;;;;5024566;28;21290;-81
2023/08/23 00:03:49;;;;;;;4.47;2.60;;;;;;;;;;5019556;28;20473;-81
2023/08/23 00:06:14;;;;;;;4.10;2.78;;;;;;;;;;5022963;28;20029;-81
2023/08/23 00:08:39;;;;;;;4.18;2.28;;;;;;;;;;5027926;28;20027;-81
2023/08/23 00:11:05;;;;;;;3.67;2.45;;;;;;;;;;5023013;28;20037;-81
2023/08/23 00:13:30;;;;;;;5.20;2.63;;;;;;;;;;5028712;28;20032;-81
2023/08/23 00:15:56;;;;;;;4.15;2.42;;;;;;;;;;5026387;28;20060;-81
2023/08/23 00:18:21;;;;;;;4.07;2.50;;;;;;;;;;5029619;28;20025;-81
2023/08/23 00:20:46;;;;;;;3.88;2.15;;;;;;;;;;5024683;28;20033;-81
2023/08/23 00:23:12;;;;;;;4.20;2.28;;;;;;;;;;5029735;28;20033;-81
2023/08/23 00:25:37;;;;;;;3.58;2.28;;;;;;;;;;5028282;28;20025;-81
2023/08/23 00:28:03;;;;;;;3.20;2.50;;;;;;;;;;5029140;28;20021;-81
2023/08/23 00:30:28;;;;;;;5.13;2.33;;;;;;;;;;5028569;28;20120;-81
2023/08/23 00:32:53;;;;;;;4.25;2.83;;;;;;;;;;5030305;28;20132;-79
2023/08/23 00:35:20;;;;;;;3.78;2.55;;;;;;;;;;5035168;28;20029;-78
2023/08/23 00:37:45;;;;;;;4.15;2.60;;;;;;;;;;5030915;28;20029;-79
2023/08/23 00:40:11;;;;;;;4.30;2.40;;;;;;;;;;5034431;28;20080;-78
2023/08/23 00:42:36;;;;;;;3.95;2.40;;;;;;;;;;5030284;28;20084;-81
2023/08/23 00:45:02;;;;;;;4.78;2.50;;;;;;;;;;5029253;28;20117;-81
2023/08/23 00:47:28;;;;;;;3.40;2.10;;;;;;;;;;5025629;28;20043;-81
2023/08/23 00:49:55;;;;;;;4.38;2.60;;;;;;;;;;5026775;28;20120;-81
2023/08/23 00:52:21;;;;;;;4.18;2.33;;;;;;;;;;5029633;28;20029;-81
2023/08/23 00:54:47;;;;;;;4.50;2.50;;;;;;;;;;5032646;28;20040;-81
2023/08/23 00:57:13;;;;;;;4.85;2.50;;;;;;;;;;5031452;28;20056;-80
2023/08/23 00:59:39;;;;;;;3.40;2.20;;;;;;;;;;5022276;28;20068;-81
2023/08/23 01:02:04;;;;;;;3.60;2.22;;;;;;;;;;5027477;28;20068;-81
2023/08/23 01:04:29;;;;;;;4.18;2.83;;;;;;;;;;5024280;28;20088;-81
2023/08/23 01:07:17;;;;;;;3.78;2.45;;;;;;;;;;5030373;28;20538;-81
2023/08/23 01:09:57;;;;;;;4.03;2.45;;;;;;;;;;5035618;28;20396;-81
2023/08/23 01:12:34;;;;;;;4.00;2.80;;;;;;;;;;5029703;28;20029;-81
2023/08/23 01:15:09;;;;;;;3.90;2.30;;;;;;;;;;5028884;28;20396;-81
2023/08/23 01:17:41;;;;;;;5.00;2.35;;;;;;;;;;5026214;28;20055;-81
2023/08/23 01:20:10;;;;;;;4.95;2.42;;;;;;;;;;5025392;28;20061;-81
2023/08/23 01:22:37;;;;;;;3.65;2.38;;;;;;;;;;5029971;28;20026;-81
2023/08/23 01:25:03;;;;;;;3.63;2.38;;;;;;;;;;5031398;28;20018;-81
2023/08/23 01:27:32;;;;;;;4.13;2.42;;;;;;;;;;5042471;28;20477;-81
2023/08/23 01:29:58;;;;;;;4.05;2.50;;;;;;;;;;5025509;28;20030;-81
2023/08/23 01:32:42;;;;;;;5.20;2.50;;;;;;;;;;5022302;28;20033;-81
2023/08/23 01:35:19;;;;;;;4.30;2.70;;;;;;;;;;5026972;28;20038;-81
2023/08/23 01:37:50;;;;;;;4.85;2.42;;;;;;;;;;5025278;28;20021;-81
2023/08/23 01:40:16;;;;;;;4.10;2.53;;;;;;;;;;5027129;28;20029;-81
2023/08/23 01:42:43;;;;;;;3.63;2.70;;;;;;;;;;5030415;28;20029;-82
2023/08/23 01:45:09;;;;;;;3.75;2.40;;;;;;;;;;5028484;28;20572;-82
2023/08/23 01:47:34;;;;;;;4.65;2.72;;;;;;;;;;5031242;28;20104;-82
2023/08/23 01:50:00;;;;;;;4.00;2.60;;;;;;;;;;5027014;28;20061;-82
2023/08/23 01:52:25;;;;;;;3.58;2.38;;;;;;;;;;5031970;28;20025;-78
2023/08/23 01:54:51;;;;;;;4.10;2.38;;;;;;;;;;5031794;28;20022;-80
2023/08/23 01:57:16;;;;;;;3.78;2.42;;;;;;;;;;5032957;28;20052;-78
2023/08/23 01:59:44;;;;;;;3.78;2.45;;;;;;;;;;5028759;28;20033;-78
2023/08/23 02:02:10;;;;;;;4.07;2.67;;;;;;;;;;5028763;28;20049;-78
2023/08/23 02:04:35;;;;;;;4.68;2.83;;;;;;;;;;5027447;28;20029;-78
2023/08/23 02:07:00;;;;;;;4.28;2.70;;;;;;;;;;5033013;28;20052;-77
2023/08/23 02:09:26;;;;;;;4.35;2.72;;;;;;;;;;5035810;28;20029;-78
2023/08/23 02:11:52;;;;;;;3.97;2.67;;;;;;;;;;5032144;28;20026;-79
2023/08/23 02:14:17;;;;;;;3.90;2.72;;;;;;;;;;5032251;28;20037;-77
2023/08/23 02:16:42;;;;;;;4.80;3.00;;;;;;;;;;5033270;28;20036;-78
2023/08/23 02:19:08;;;;;;;5.28;3.03;;;;;;;;;;5036074;28;20037;-78
2023/08/23 02:21:34;;;;;;;6.03;3.10;;;;;;;;;;5026905;28;20163;-78
2023/08/23 02:24:00;;;;;;;4.57;2.85;;;;;;;;;;5034767;28;20112;-78
2023/08/23 02:26:25;;;;;;;6.07;3.05;;;;;;;;;;5030859;28;20545;-78
2023/08/23 02:28:51;;;;;;;5.05;2.63;;;;;;;;;;5029926;28;20033;-78
2023/08/23 02:31:16;;;;;;;5.35;3.05;;;;;;;;;;5030231;28;20448;-78
2023/08/23 02:33:41;;;;;;;4.60;2.80;;;;;;;;;;5029294;28;20057;-78
2023/08/23 02:36:07;;;;;;;5.30;3.10;;;;;;;;;;5039499;28;20030;-78
2023/08/23 02:38:32;;;;;;;4.50;2.80;;;;;;;;;;5033826;28;20029;-78
2023/08/23 02:40:57;;;;;;;4.70;3.08;;;;;;;;;;5026461;28;20025;-78
2023/08/23 02:43:23;;;;;;;4.90;2.88;;;;;;;;;;5029541;28;20033;-77
2023/08/23 02:45:48;;;;;;;5.07;3.20;;;;;;;;;;5025247;28;20393;-78
2023/08/23 02:48:14;;;;;;;5.32;3.03;;;;;;;;;;5032737;28;20065;-78
2023/08/23 02:50:40;;;;;;;4.65;3.08;;;;;;;;;;5030227;28;20632;-79
2023/08/23 02:53:07;;;;;;;4.47;3.10;;;;;;;;;;5028877;28;20389;-85
2023/08/23 02:55:36;;;;;;;4.80;3.00;;;;;;;;;;5024137;28;20132;-85
2023/08/23 02:58:02;;;;;;;4.82;2.90;;;;;;;;;;5023265;28;20068;-86
2023/08/23 03:00:27;;;;;;;4.50;3.00;;;;;;;;;;5025547;28;20060;-85
2023/08/23 03:02:52;;;;;;;4.03;2.78;;;;;;;;;;5020459;28;20048;-81
2023/08/23 03:05:18;;;;;;;4.90;3.17;;;;;;;;;;5039298;28;20018;-82
2023/08/23 03:07:43;;;;;;;4.60;3.00;;;;;;;;;;5022796;28;20092;-82
2023/08/23 03:10:09;;;;;;;4.63;2.88;;;;;;;;;;5023961;28;20026;-82
2023/08/23 03:12:35;;;;;;;4.80;3.30;;;;;;;;;;5031025;28;20108;-81
2023/08/23 03:15:00;;;;;;;4.53;2.72;;;;;;;;;;5029480;28;20434;-82
2023/08/23 03:17:26;;;;;;;4.65;2.88;;;;;;;;;;5031681;28;20061;-82
2023/08/23 03:19:51;;;;;;;4.20;2.70;;;;;;;;;;5029001;28;20108;-82
2023/08/23 03:22:16;;;;;;;4.65;3.05;;;;;;;;;;5030778;28;20025;-82
2023/08/23 03:24:42;;;;;;;4.13;3.03;;;;;;;;;;5031455;28;20462;-81
2023/08/23 03:27:07;;;;;;;6.60;3.28;;;;;;;;;;5030359;28;20067;-82
2023/08/23 03:29:33;;;;;;;4.65;3.10;;;;;;;;;;5026953;28;20040;-82
2023/08/23 03:31:58;;;;;;;5.32;2.95;;;;;;;;;;5032242;28;20167;-82
2023/08/23 03:34:23;;;;;;;4.57;3.20;;;;;;;;;;5027040;28;20122;-82
2023/08/23 03:36:49;;;;;;;5.45;2.97;;;;;;;;;;5034152;28;20026;-82
2023/08/23 03:39:14;;;;;;;5.00;3.40;;;;;;;;;;5026587;28;20029;-82
2023/08/23 03:41:39;;;;;;;4.75;2.90;;;;;;;;;;5034886;28;20025;-82
2023/08/23 03:44:05;;;;;;;3.95;2.80;;;;;;;;;;5030473;28;20037;-82
2023/08/23 03:46:30;;;;;;;4.20;2.90;;;;;;;;;;5027655;28;20163;-82
2023/08/23 03:48:56;;;;;;;4.60;2.95;;;;;;;;;;5029693;28;20500;-81
2023/08/23 03:51:21;;;;;;;4.53;3.10;;;;;;;;;;5027924;28;20021;-81
2023/08/23 03:53:47;;;;;;;4.43;3.00;;;;;;;;;;5022451;28;20186;-81
2023/08/23 03:56:13;;;;;;;4.13;3.05;;;;;;;;;;5028928;28;20071;-81
2023/08/23 03:58:38;;;;;;;5.22;2.85;;;;;;;;;;5023791;28;20022;-81
2023/08/23 04:01:03;;;;;;;6.38;3.25;;;;;;;;;;5024316;28;20079;-82
2023/08/23 04:03:29;;;;;;;5.15;3.20;;;;;;;;;;5021043;28;21717;-82
2023/08/23 04:05:54;;;;;;;5.50;3.17;;;;;;;;;;5020246;28;20112;-81
2023/08/23 04:08:20;;;;;;;5.38;3.10;;;;;;;;;;5023400;28;20068;-81
2023/08/23 04:10:49;;;;;;;5.75;3.40;;;;;;;;;;5024293;28;20025;-81
2023/08/23 04:13:16;;;;;;;5.90;2.80;;;;;;;;;;5023327;28;20068;-82
2023/08/23 04:15:42;;;;;;;9.05;3.40;;;;;;;;;;5026195;28;20048;-81
2023/08/23 04:18:08;;;;;;;5.13;3.15;;;;;;;;;;5039498;28;20037;-81
2023/08/23 04:20:33;;;;;;;4.43;2.85;;;;;;;;;;5027636;28;20104;-82
2023/08/23 04:22:58;;;;;;;5.53;3.08;;;;;;;;;;5025442;28;20028;-82
2023/08/23 04:25:24;;;;;;;4.00;2.70;;;;;;;;;;5032965;28;20458;-82
2023/08/23 04:27:49;;;;;;;5.40;3.00;;;;;;;;;;5033133;28;20017;-82
2023/08/23 04:30:14;;;;;;;5.07;3.00;;;;;;;;;;5026717;28;20132;-81
2023/08/23 04:32:40;;;;;;;7.32;3.15;;;;;;;;;;5032672;28;20025;-82
2023/08/23 04:35:06;;;;;;;6.38;3.00;;;;;;;;;;5030612;28;20118;-82
2023/08/23 04:37:31;;;;;;;4.78;3.13;;;;;;;;;;5027560;28;20030;-82
2023/08/23 04:39:56;;;;;;;4.82;3.00;;;;;;;;;;5032984;28;20033;-82
2023/08/23 04:42:22;;;;;;;4.22;2.90;;;;;;;;;;5027392;28;20053;-82
2023/08/23 04:44:47;;;;;;;5.50;3.10;;;;;;;;;;5034875;28;20107;-81
2023/08/23 04:47:13;;;;;;;5.00;3.05;;;;;;;;;;5030065;28;20021;-81
2023/08/23 04:49:38;;;;;;;5.97;3.30;;;;;;;;;;5025343;28;20048;-81
2023/08/23 04:52:04;;;;;;;5.53;2.90;;;;;;;;;;5031043;28;20036;-79
2023/08/23 04:54:29;;;;;;;5.38;2.97;;;;;;;;;;5028096;28;20104;-80
2023/08/23 04:56:55;;;;;;;4.90;2.72;;;;;;;;;;5025212;28;20018;-80
2023/08/23 04:59:20;;;;;;;4.82;3.00;;;;;;;;;;5022787;28;20062;-79
2023/08/23 05:01:46;;;;;;;4.78;2.60;;;;;;;;;;5027531;28;20040;-80
2023/08/23 05:04:11;;;;;;;8.43;3.15;;;;;;;;;;5030094;28;20029;-80
2023/08/23 05:06:36;;;;;;;4.25;2.80;;;;;;;;;;5031657;28;20052;-80
2023/08/23 05:09:04;;;;;;;4.63;2.63;;;;;;;;;;5031127;28;20029;-80
2023/08/23 05:11:30;;;;;;;5.70;2.85;;;;;;;;;;5026748;28;20048;-80
2023/08/23 05:13:55;;;;;;;5.28;3.13;;;;;;;;;;5027536;28;20064;-87
2023/08/23 05:16:21;;;;;;;4.47;2.65;;;;;;;;;;5025055;28;20469;-86
2023/08/23 05:18:46;;;;;;;4.35;2.90;;;;;;;;;;5028413;28;20021;-84
2023/08/23 05:21:11;;;;;;;7.32;3.60;;;;;;;;;;5028711;28;20041;-86
2023/08/23 05:23:37;;;;;;;7.38;3.50;;;;;;;;;;5027081;28;20021;-86
2023/08/23 05:26:02;;;;;;;5.03;3.22;;;;;;;;;;5020848;28;20056;-83
2023/08/23 05:28:28;;;;;;;6.47;3.50;;;;;;;;;;5020184;28;20087;-86
2023/08/23 05:30:53;;;;;;;6.38;3.40;;;;;;;;;;5027225;28;20540;-86
2023/08/23 05:33:19;;;;;;;7.32;4.00;;;;;;;;;;5027382;28;20095;-85
2023/08/23 05:35:44;;;;;;;5.97;3.72;;;;;;;;;;5024268;28;20025;-85
2023/08/23 05:38:10;;;;;;;5.28;3.90;;;;;;;;;;5026997;28;20497;-86
2023/08/23 05:40:36;;;;;;;6.30;3.88;;;;;;;;;;5027521;28;20025;-86
2023/08/23 05:43:01;;;;;;;6.35;4.40;;;;;;;;;;5027217;28;20108;-84
2023/08/23 05:45:27;;;;;;;6.00;3.80;;;;;;;;;;5027278;28;20124;-85
2023/08/23 05:47:56;;;;;;;7.75;3.92;;;;;;;;;;5031927;28;20021;-85
2023/08/23 05:50:22;;;;;;;6.30;4.32;;;;;;;;;;5029888;28;20055;-85
2023/08/23 05:52:48;;;;;;;6.43;4.10;;;;;;;;;;5027180;28;20266;-83
2023/08/23 05:55:13;;;;;;;5.75;3.75;;;;;;;;;;5025003;28;20501;-86
2023/08/23 05:57:39;;;;;;;6.57;4.38;;;;;;;;;;5020398;28;20054;-86
2023/08/23 06:00:06;;;;;;;5.93;4.00;;;;;;;;;;5025439;28;20200;-85
2023/08/23 06:02:31;;;;;;;7.22;4.60;;;;;;;;;;5023426;28;20044;-85
2023/08/23 06:04:58;;;;;;;7.32;4.53;;;;;;;;;;5024310;28;20107;-85
2023/08/23 06:07:23;;;;;;;6.10;4.25;;;;;;;;;;5019854;28;20084;-86
2023/08/23 06:09:48;;;;;;;7.10;4.43;;;;;;;;;;5017479;28;20021;-84
2023/08/23 06:12:14;;;;;;;5.95;4.00;;;;;;;;;;5020881;28;20021;-83
2023/08/23 06:14:39;;;;;;;6.47;4.20;;;;;;;;;;5024523;28;20037;-82
2023/08/23 06:17:06;;;;;;;7.15;4.38;;;;;;;;;;5018739;28;20039;-84
2023/08/23 06:19:32;;;;;;;6.97;4.25;;;;;;;;;;5026839;28;20416;-85
2023/08/23 06:21:57;;;;;;;7.20;4.22;;;;;;;;;;5025362;28;20040;-80
2023/08/23 06:24:22;;;;;;;8.43;5.55;;;;;;;;;;5024372;28;20028;-80
2023/08/23 06:26:50;;;;;;;8.45;5.28;;;;;;;;;;5024505;28;20025;-80
2023/08/23 06:29:15;;;;;;;6.93;5.03;;;;;;;;;;5019239;28;20033;-79
2023/08/23 06:31:41;;;;;;;7.88;4.93;;;;;;;;;;5027023;28;20040;-81
2023/08/23 06:34:06;;;;;;;7.70;4.65;;;;;;;;;;5026793;28;20446;-79
2023/08/23 06:36:32;;;;;;;8.32;5.30;;;;;;;;;;5026577;28;20079;-79
2023/08/23 06:38:57;;;;;;;9.70;4.85;;;;;;;;;;5018637;28;20025;-79
2023/08/23 06:41:22;;;;;;;9.27;5.40;;;;;;;;;;5028263;28;20022;-79
2023/08/23 06:43:48;;;;;;;9.93;5.70;;;;;;;;;;5027817;28;20436;-79
2023/08/23 06:46:13;;;;;;;8.65;5.93;;;;;;;;;;5028569;28;20026;-79
2023/08/23 06:48:39;;;;;;;7.18;4.40;;;;;;;;;;5025113;28;20028;-78
2023/08/23 06:51:04;;;;;;;7.32;4.25;;;;;;;;;;5027257;28;20042;-78
2023/08/23 06:53:31;;;;;;;8.85;5.10;;;;;;;;;;5028024;28;20060;-79
2023/08/23 06:55:56;;;;;;;7.10;5.13;;;;;;;;;;5027543;28;20079;-79
2023/08/23 06:58:22;;;;;;;9.63;6.05;;;;;;;;;;5020867;28;20570;-79
2023/08/23 07:00:48;;;;;;;7.90;4.97;;;;;;;;;;5021970;28;20045;-79
2023/08/23 07:03:14;;;;;;;6.60;5.10;;;;;;;;;;5023613;28;20107;-81
2023/08/23 07:05:39;;;;;;;7.47;5.07;;;;;;;;;;5021673;28;20500;-81
2023/08/23 07:08:05;;;;;;;8.02;5.32;;;;;;;;;;5017118;28;20087;-82
2023/08/23 07:10:30;;;;;;;9.80;6.10;;;;;;;;;;5029643;28;20039;-81
2023/08/23 07:12:56;;;;;;;10.25;6.47;;;;;;;;;;5027102;28;20040;-81
2023/08/23 07:15:22;;;;;;;8.05;6.10;;;;;;;;;;5025469;28;20026;-81
2023/08/23 07:17:48;;;;;;;9.27;6.78;;;;;;;;;;5026543;28;20057;-81
2023/08/23 07:20:15;;;;;;;10.05;6.85;;;;;;;;;;5028412;28;20026;-81
2023/08/23 07:22:41;;;;;;;10.80;7.47;;;;;;;;;;5023609;28;20075;-81
2023/08/23 07:25:07;;;;;;;11.57;7.90;;;;;;;;;;5020891;28;20025;-81
2023/08/23 07:27:32;;;;;;;10.57;7.57;;;;;;;;;;5031635;28;20481;-81
2023/08/23 07:29:58;;;;;;;12.05;6.78;;;;;;;;;;5028088;28;20036;-81
2023/08/23 07:32:24;;;;;;;8.07;5.55;;;;;;;;;;5022915;28;20113;-85
2023/08/23 07:34:50;;;;;;;9.95;5.95;;;;;;;;;;5029062;28;20037;-85
2023/08/23 07:37:17;;;;;;;7.18;5.65;;;;;;;;;;5027373;28;20036;-86
2023/08/23 07:39:43;;;;;;;7.82;5.47;;;;;;;;;;5027313;28;20026;-85
2023/08/23 07:42:08;;;;;;;8.13;6.05;;;;;;;;;;5027321;28;20039;-81
2023/08/23 07:44:34;;;;;;;9.60;5.68;;;;;;;;;;5023375;28;20037;-81
2023/08/23 07:47:00;;;;;;;9.00;5.70;;;;;;;;;;5020609;28;20474;-81
2023/08/23 07:49:25;;;;;;;9.27;5.30;;;;;;;;;;5025190;28;20032;-81
2023/08/23 07:51:50;;;;;;;7.32;5.40;;;;;;;;;;5023145;28;20033;-81
2023/08/23 07:54:16;;;;;;;7.95;5.50;;;;;;;;;;5028039;28;20100;-81
2023/08/23 07:56:41;;;;;;;8.48;5.50;;;;;;;;;;5026313;28;20378;-81
2023/08/23 07:59:07;;;;;;;12.18;5.90;;;;;;;;;;5028314;28;20033;-81
2023/08/23 08:01:32;;;;;;;7.82;5.22;;;;;;;;;;5030047;28;20527;-81
2023/08/23 08:03:58;;;;;;;8.13;5.70;;;;;;;;;;5033228;28;20405;-81
2023/08/23 08:06:24;;;;;;;8.98;6.43;;;;;;;;;;5029250;28;20465;-81
2023/08/23 08:08:49;;;;;;;7.72;5.75;;;;;;;;;;5037694;28;20029;-82
2023/08/23 08:11:15;;;;;;;8.20;5.35;;;;;;;;;;5034183;28;20030;-82
2023/08/23 08:13:40;;;;;;;8.55;5.15;;;;;;;;;;5035713;28;20021;-82
2023/08/23 08:16:10;;;;;;;10.07;5.85;;;;;;;;;;5033774;28;20056;-82
2023/08/23 08:18:36;;;;;;;6.93;4.80;;;;;;;;;;5036906;28;20030;-82
2023/08/23 08:21:02;;;;;;;7.47;4.85;;;;;;;;;;5032191;28;20378;-81
2023/08/23 08:23:29;;;;;;;9.60;5.28;;;;;;;;;;5028529;28;20026;-81
2023/08/23 08:25:55;;;;;;;6.63;4.60;;;;;;;;;;5029766;28;20013;-81
2023/08/23 08:28:20;;;;;;;7.15;5.00;;;;;;;;;;5025857;28;20029;-82
2023/08/23 08:30:47;;;;;;;6.78;4.25;;;;;;;;;;5029542;28;20490;-82
2023/08/23 08:33:12;;;;;;;6.95;4.13;;;;;;;;;;5031807;28;20021;-82
2023/08/23 08:35:37;;;;;;;7.50;4.50;;;;;;;;;;5033023;28;20030;-82
2023/08/23 08:38:03;;;;;;;9.40;4.72;;;;;;;;;;5026150;28;20401;-81
2023/08/23 08:40:29;;;;;;;6.72;4.13;;;;;;;;;;5031418;28;20032;-81
2023/08/23 08:42:55;;;;;;;8.45;4.60;;;;;;;;;;5030072;28;20028;-86
2023/08/23 08:45:20;;;;;;;5.93;3.60;;;;;;;;;;5029624;28;20021;-86
2023/08/23 08:47:47;;;;;;;6.65;3.40;;;;;;;;;;5009032;28;20172;-83
2023/08/23 08:50:13;;;;;;;5.40;3.00;;;;;;;;;;5026345;28;20029;-85
2023/08/23 08:52:48;;;;;;;6.70;3.92;;;;;;;;;;5018474;28;20029;-85
2023/08/23 08:55:15;;;;;;;6.38;3.42;;;;;;;;;;5017507;28;20386;-85
2023/08/23 08:57:42;;;;;;;5.00;2.47;;;;;;;;;;5018562;28;20044;-85
2023/08/23 09:00:09;;;;;;;5.22;2.80;;;;;;;;;;5019966;28;20119;-85
2023/08/23 09:02:36;;;;;;;4.70;2.40;;;;;;;;;;5020414;28;20080;-86
2023/08/23 09:05:02;;;;;;;3.58;1.92;;;;;;;;;;5017713;28;20032;-85
2023/08/23 09:07:28;;;;;;;4.95;2.78;;;;;;;;;;5020578;28;20041;-84
2023/08/23 09:09:55;;;;;;;6.25;3.30;;;;;;;;;;5020414;28;20026;-86
2023/08/23 09:12:21;;;;;;;5.70;2.80;;;;;;;;;;5025309;28;20040;-86
2023/08/23 09:14:50;;;;;;;5.18;2.13;;;;;;;;;;5042829;28;20030;-82
2023/08/23 09:17:20;;;;;;;5.30;1.92;;;;;;;;;;5024772;28;20399;-85
2023/08/23 09:19:45;;;;;;;3.63;1.85;;;;;;;;;;5024176;28;20029;-85
2023/08/23 09:22:11;;;;;;;6.10;2.38;;;;;;;;;;5026914;28;20030;-84
2023/08/23 09:24:36;;;;;;;3.35;2.10;;;;;;;;;;5022699;28;20116;-84
2023/08/23 09:27:02;;;;;;;4.90;2.65;;;;;;;;;;5018410;28;20120;-85
2023/08/23 09:29:27;;;;;;;6.13;2.80;;;;;;;;;;5023381;28;20111;-85
2023/08/23 09:31:53;;;;;;;3.70;1.90;;;;;;;;;;5021524;28;20325;-84
2023/08/23 09:34:18;;;;;;;5.72;2.30;;;;;;;;;;5027246;28;20059;-84
2023/08/23 09:36:43;;;;;;;5.43;2.05;;;;;;;;;;5018824;28;20087;-83
2023/08/23 09:39:10;;;;;;;8.73;2.55;;;;;;;;;;5026003;28;20025;-85
2023/08/23 09:41:41;;;;;;;5.35;2.28;;;;;;;;;;5018189;28;20034;-84
2023/08/23 09:44:07;;;;;;;4.22;1.60;;;;;;;;;;5018027;28;20095;-85
2023/08/23 09:46:35;;;;;;;5.00;1.58;;;;;;;;;;5023455;28;20017;-83
2023/08/23 09:49:05;;;;;;;4.97;2.20;;;;;;;;;;5024678;28;20099;-84
2023/08/23 09:51:35;;;;;;;3.25;1.90;;;;;;;;;;5021485;28;20071;-84
2023/08/23 09:54:11;;;;;;;3.13;1.55;;;;;;;;;;5025475;28;20039;-83
2023/08/23 09:56:37;;;;;;;4.00;1.67;;;;;;;;;;5019854;28;20044;-83
2023/08/23 09:59:02;;;;;;;3.92;1.52;;;;;;;;;;5013897;28;20033;-83
2023/08/23 10:01:28;;;;;;;4.05;1.50;;;;;;;;;;5019683;28;20025;-82
2023/08/23 10:03:54;;;;;;;3.22;1.42;;;;;;;;;;5015351;28;20059;-84
2023/08/23 10:06:21;;;;;;;2.20;1.23;;;;;;;;;;5021518;28;20109;-83
2023/08/23 10:08:46;;;;;;;2.20;1.30;;;;;;;;;;5015670;28;20041;-84
2023/08/23 10:11:13;;;;;;;3.03;1.48;;;;;;;;;;5021680;28;20040;-84
2023/08/23 10:13:39;;;;;;;2.65;1.00;;;;;;;;;;5024488;28;20222;-83
2023/08/23 10:16:06;;;;;;;2.78;1.40;;;;;;;;;;5022292;28;20029;-85
2023/08/23 10:18:34;;;;;;;5.00;1.35;;;;;;;;;;5013590;28;20117;-84
2023/08/23 10:21:02;;;;;;;3.38;1.70;;;;;;;;;;5031018;28;20025;-84
2023/08/23 10:23:29;;;;;;;3.65;1.80;;;;;;;;;;5045026;28;20465;-84
2023/08/23 10:25:54;;;;;;;4.05;1.50;;;;;;;;;;5029168;28;20385;-84
2023/08/23 10:28:20;;;;;;;5.03;1.45;;;;;;;;;;5030382;28;20052;-84
2023/08/23 10:30:48;;;;;;;2.95;1.60;;;;;;;;;;5023226;28;20040;-84
2023/08/23 10:33:15;;;;;;;2.95;1.40;;;;;;;;;;5023581;28;20033;-84
2023/08/23 10:35:45;;;;;;;3.47;1.02;;;;;;;;;;5031062;28;20465;-84
2023/08/23 10:38:16;;;;;;;4.30;1.25;;;;;;;;;;5030243;28;20385;-84
2023/08/23 10:40:47;;;;;;;1.92;1.20;;;;;;;;;;5029674;28;20036;-85
2023/08/23 10:43:28;;;;;;;2.15;1.45;;;;;;;;;;5030945;28;20017;-84
2023/08/23 10:46:02;;;;;;;2.70;1.33;;;;;;;;;;5026978;28;20033;-85
2023/08/23 10:48:31;;;;;;;3.60;1.48;;;;;;;;;;5032770;28;20463;-84
2023/08/23 10:50:59;;;;;;;3.20;1.33;;;;;;;;;;5036195;28;20073;-84
2023/08/23 10:53:28;;;;;;;4.10;1.63;;;;;;;;;;5030116;28;20044;-85
2023/08/23 10:55:53;;;;;;;4.75;2.05;;;;;;;;;;5036316;28;20143;-85
2023/08/23 10:58:19;;;;;;;3.25;1.60;;;;;;;;;;5038709;28;20053;-85
2023/08/23 11:00:53;;;;;;;4.55;1.58;;;;;;;;;;5025698;28;20466;-86
2023/08/23 11:03:20;;;;;;;3.95;2.08;;;;;;;;;;5029298;28;20025;-83
2023/08/23 11:05:46;;;;;;;2.60;1.65;;;;;;;;;;5023974;28;20481;-82
2023/08/23 11:08:14;;;;;;;3.60;1.45;;;;;;;;;;5023760;28;20037;-83
2023/08/23 11:10:50;;;;;;;3.72;1.73;;;;;;;;;;5029084;28;20489;-84
2023/08/23 11:13:16;;;;;;;4.90;1.73;;;;;;;;;;5034917;28;20036;-81
2023/08/23 11:15:42;;;;;;;4.85;2.20;;;;;;;;;;5034759;28;20017;-81
2023/08/23 11:18:10;;;;;;;4.10;1.80;;;;;;;;;;5042413;28;20401;-81
2023/08/23 11:20:36;;;;;;;3.97;1.50;;;;;;;;;;5042866;28;20029;-81
2023/08/23 11:23:01;;;;;;;4.40;1.33;;;;;;;;;;5039680;28;20040;-81
2023/08/23 11:25:29;;;;;;;3.95;1.67;;;;;;;;;;5043896;28;20030;-81
2023/08/23 11:27:57;;;;;;;5.20;1.75;;;;;;;;;;5042292;28;20018;-81
2023/08/23 11:30:29;;;;;;;3.10;1.50;;;;;;;;;;5037713;28;20056;-81
2023/08/23 11:32:58;;;;;;;4.13;1.50;;;;;;;;;;5051480;28;20049;-81
2023/08/23 11:35:23;;;;;;;4.07;1.65;;;;;;;;;;5045189;28;20085;-81
2023/08/23 11:37:49;;;;;;;4.35;1.58;;;;;;;;;;5043590;28;20440;-81
2023/08/23 11:40:15;;;;;;;4.43;2.00;;;;;;;;;;5048983;28;20033;-81
2023/08/23 11:42:40;;;;;;;5.53;1.95;;;;;;;;;;5047517;28;20440;-80
2023/08/23 11:45:07;;;;;;;4.25;1.60;;;;;;;;;;5049972;28;20040;-82
2023/08/23 11:47:34;;;;;;;3.88;1.58;;;;;;;;;;5050707;28;20021;-82
2023/08/23 11:50:00;;;;;;;3.30;1.60;;;;;;;;;;5047415;28;20025;-82
2023/08/23 11:52:30;;;;;;;3.85;1.60;;;;;;;;;;5055875;28;20099;-81
2023/08/23 11:54:55;;;;;;;4.18;1.80;;;;;;;;;;5053239;28;20021;-82
2023/08/23 11:57:21;;;;;;;3.47;1.75;;;;;;;;;;5051206;28;20025;-80
2023/08/23 11:59:46;;;;;;;1.95;1.20;;;;;;;;;;5052252;28;20055;-81
2023/08/23 12:02:12;;;;;;;3.25;1.60;;;;;;;;;;5045601;28;20038;-80
2023/08/23 12:04:44;;;;;;;3.08;1.30;;;;;;;;;;5043811;28;20022;-82
2023/08/23 12:07:09;;;;;;;2.73;1.43;;;;;;;;;;5046402;28;20064;-84
2023/08/23 12:09:35;;;;;;;4.10;2.03;;;;;;;;;;5046130;28;20421;-82
2023/08/23 12:12:03;;;;;;;4.50;1.90;;;;;;;;;;5031157;28;20034;-82
2023/08/23 12:14:29;;;;;;;5.25;1.60;;;;;;;;;;5039274;28;20029;-82
2023/08/23 12:16:55;;;;;;;5.00;1.70;;;;;;;;;;5039105;28;20029;-82
2023/08/23 12:19:21;;;;;;;4.90;1.60;;;;;;;;;;5034912;28;20037;-82
2023/08/23 12:21:49;;;;;;;4.07;1.90;;;;;;;;;;5047795;28;20112;-83
2023/08/23 12:24:17;;;;;;;4.72;1.70;;;;;;;;;;5032453;28;20056;-86
2023/08/23 12:26:43;;;;;;;5.45;1.70;;;;;;;;;;5026549;28;20029;-85
2023/08/23 12:29:09;;;;;;;5.15;2.20;;;;;;;;;;5041860;28;20083;-85
2023/08/23 12:31:34;;;;;;;4.88;2.10;;;;;;;;;;5024594;28;20059;-85
2023/08/23 12:34:00;;;;;;;5.75;2.00;;;;;;;;;;5026510;28;20029;-85
2023/08/23 12:36:25;;;;;;;3.70;2.10;;;;;;;;;;5030828;28;20022;-85
2023/08/23 12:38:58;;;;;;;2.70;1.38;;;;;;;;;;5028176;28;20112;-85
2023/08/23 12:41:23;;;;;;;3.28;1.70;;;;;;;;;;5038373;28;20489;-86
2023/08/23 12:43:49;;;;;;;4.10;1.90;;;;;;;;;;5029963;28;20067;-86
2023/08/23 12:46:20;;;;;;;5.65;2.40;;;;;;;;;;5027685;28;20481;-86
2023/08/23 12:49:22;;;;;;;3.63;2.38;;;;;;;;;;5023751;28;20334;-86
2023/08/23 12:51:50;;;;;;;4.03;2.58;;;;;;;;;;5022862;28;20375;-86
2023/08/23 12:54:22;;;;;;;5.65;2.20;;;;;;;;;;5027806;28;20477;-86
2023/08/23 12:56:48;;;;;;;2.90;1.80;;;;;;;;;;5024156;28;20454;-86
2023/08/23 12:59:13;;;;;;;3.95;2.05;;;;;;;;;;5028070;28;20060;-86
2023/08/23 13:01:42;;;;;;;4.82;2.20;;;;;;;;;;5030867;28;20482;-85
2023/08/23 13:04:07;;;;;;;5.72;2.10;;;;;;;;;;5031356;28;20038;-86
2023/08/23 13:06:33;;;;;;;3.65;2.08;;;;;;;;;;5029645;28;20022;-86
2023/08/23 13:08:58;;;;;;;5.82;1.60;;;;;;;;;;5030393;28;20029;-85
2023/08/23 13:11:26;;;;;;;3.15;2.00;;;;;;;;;;5028212;28;20120;-85
2023/08/23 13:13:52;;;;;;;3.50;2.15;;;;;;;;;;5029038;28;20029;-86
2023/08/23 13:16:18;;;;;;;4.20;1.95;;;;;;;;;;5023939;28;20095;-85
2023/08/23 13:18:43;;;;;;;3.55;1.60;;;;;;;;;;5016451;28;20065;-86
2023/08/23 13:21:08;;;;;;;5.32;2.28;;;;;;;;;;5021626;28;20454;-86
2023/08/23 13:23:34;;;;;;;4.78;2.38;;;;;;;;;;5024864;28;20477;-85
2023/08/23 13:25:59;;;;;;;7.22;2.67;;;;;;;;;;5028264;28;20123;-85
2023/08/23 13:28:25;;;;;;;3.60;2.05;;;;;;;;;;5022408;28;20021;-85
2023/08/23 13:30:51;;;;;;;4.35;2.30;;;;;;;;;;5032497;28;20056;-86
2023/08/23 13:33:16;;;;;;;4.93;2.58;;;;;;;;;;5027235;28;20068;-87
2023/08/23 13:35:45;;;;;;;5.38;2.63;;;;;;;;;;5027528;28;20096;-87
2023/08/23 13:38:12;;;;;;;5.80;2.55;;;;;;;;;;5027150;28;20033;-87
2023/08/23 13:40:38;;;;;;;5.30;2.40;;;;;;;;;;5026822;28;20056;-86
2023/08/23 13:43:06;;;;;;;4.43;2.45;;;;;;;;;;5031162;28;20102;-87
2023/08/23 13:45:31;;;;;;;4.93;2.20;;;;;;;;;;5026656;28;20032;-88
2023/08/23 13:47:57;;;;;;;5.70;2.70;;;;;;;;;;5027768;28;20377;-87
2023/08/23 13:50:27;;;;;;;5.60;2.40;;;;;;;;;;5025799;28;20509;-86
2023/08/23 13:53:36;;;;;;;4.13;2.03;;;;;;;;;;5024313;28;20052;-88
2023/08/23 13:56:01;;;;;;;5.90;2.53;;;;;;;;;;5021703;28;20489;-87
2023/08/23 13:58:27;;;;;;;4.45;2.50;;;;;;;;;;5023229;28;20084;-88
2023/08/23 14:00:52;;;;;;;4.38;2.40;;;;;;;;;;5026729;28;20426;-87
2023/08/23 14:03:18;;;;;;;3.47;1.98;;;;;;;;;;5023647;28;20045;-86
2023/08/23 14:05:43;;;;;;;4.50;2.20;;;;;;;;;;5023237;28;20056;-85
2023/08/23 14:08:09;;;;;;;7.65;2.80;;;;;;;;;;5021140;28;20039;-86
2023/08/23 14:10:34;;;;;;;6.20;2.67;;;;;;;;;;5026194;28;20029;-87
2023/08/23 14:13:00;;;;;;;6.25;3.30;;;;;;;;;;5028617;28;20025;-87
2023/08/23 14:15:25;;;;;;;5.25;3.17;;;;;;;;;;5044275;28;20438;-87
2023/08/23 14:17:53;;;;;;;7.75;4.40;;;;;;;;;;5027153;28;20026;-87
2023/08/23 14:20:21;;;;;;;8.13;4.65;;;;;;;;;;5025899;28;20040;-87
2023/08/23 14:22:59;;;;;;;8.38;3.42;;;;;;;;;;5023369;28;20125;-86
2023/08/23 14:25:25;;;;;;;7.22;3.53;;;;;;;;;;5024077;28;20026;-87
2023/08/23 14:27:51;;;;;;;9.90;4.00;;;;;;;;;;5023378;28;20047;-87
2023/08/23 14:30:32;;;;;;;5.70;3.50;;;;;;;;;;5022594;28;20489;-86
2023/08/23 14:32:59;;;;;;;5.55;3.30;;;;;;;;;;5073764;22;20052;-88
2023/08/23 14:35:32;;;;;;;7.38;3.58;;;;;;;;;;5026629;28;20022;-88
2023/08/23 14:38:00;;;;;;;6.93;3.13;;;;;;;;;;5028318;28;20033;-88
2023/08/23 14:40:26;;;;;;;5.38;3.97;;;;;;;;;;5024067;28;20024;-87